sensor_id;sensor_type;location;lat;lon;timestamp;temperature;humidity
10149;DHT22;5115;50.920;6.376;2022-09-09T00:02:03;17.50;99.90
10149;DHT22;5115;50.920;6.376;2022-09-09T00:04:31;17.50;99.90
10149;DHT22;5115;50.920;6.376;2022-09-09T00:09:35;17.50;99.90
10149;DHT22;5115;50.920;6.376;2022-09-09T00:12:06;17.60;99.90
10149;DHT22;5115;50.920;6.376;2022-09-09T00:14:51;17.50;99.90
10149;DHT22;5115;50.920;6.376;2022-09-09T00:20:16;17.40;99.90
10149;DHT22;5115;50.920;6.376;2022-09-09T00:22:51;17.30;99.90
10149;DHT22;5115;50.920;6.376;2022-09-09T00:27:54;17.30;99.90
10149;DHT22;5115;50.920;6.376;2022-09-09T00:30:25;17.30;99.90
10149;DHT22;5115;50.920;6.376;2022-09-09T00:32:59;17.30;99.90
10149;DHT22;5115;50.920;6.376;2022-09-09T00:35:36;17.40;99.90
10149;DHT22;5115;50.920;6.376;2022-09-09T00:40:53;17.40;99.90
10149;DHT22;5115;50.920;6.376;2022-09-09T00:43:32;17.30;99.90
10149;DHT22;5115;50.920;6.376;2022-09-09T00:46:24;17.30;99.90
10149;DHT22;5115;50.920;6.376;2022-09-09T00:48:59;17.40;99.90
10149;DHT22;5115;50.920;6.376;2022-09-09T00:54:27;17.40;99.90
10149;DHT22;5115;50.920;6.376;2022-09-09T00:57:27;17.40;99.90
10149;DHT22;5115;50.920;6.376;2022-09-09T01:00:29;17.30;99.90
10149;DHT22;5115;50.920;6.376;2022-09-09T01:08:00;17.20;99.90
10149;DHT22;5115;50.920;6.376;2022-09-09T01:10:50;17.10;99.90
10149;DHT22;5115;50.920;6.376;2022-09-09T01:13:33;17.10;99.90
10149;DHT22;5115;50.920;6.376;2022-09-09T01:16:01;17.10;99.90
10149;DHT22;5115;50.920;6.376;2022-09-09T01:18:54;17.10;99.90
10149;DHT22;5115;50.920;6.376;2022-09-09T01:22:06;17.10;99.90
10149;DHT22;5115;50.920;6.376;2022-09-09T01:27:18;17.00;99.90
10149;DHT22;5115;50.920;6.376;2022-09-09T01:29:44;17.00;99.90
10149;DHT22;5115;50.920;6.376;2022-09-09T01:32:37;17.00;99.90
10149;DHT22;5115;50.920;6.376;2022-09-09T01:35:07;16.90;99.90
10149;DHT22;5115;50.920;6.376;2022-09-09T01:37:33;17.00;99.90
10149;DHT22;5115;50.920;6.376;2022-09-09T01:39:59;16.90;99.90
10149;DHT22;5115;50.920;6.376;2022-09-09T01:42:24;16.90;99.90
10149;DHT22;5115;50.920;6.376;2022-09-09T01:44:50;16.80;99.90
10149;DHT22;5115;50.920;6.376;2022-09-09T01:47:16;16.80;99.90
10149;DHT22;5115;50.920;6.376;2022-09-09T01:49:43;16.80;99.90
10149;DHT22;5115;50.920;6.376;2022-09-09T01:52:08;16.90;99.90
10149;DHT22;5115;50.920;6.376;2022-09-09T01:54:34;16.80;99.90
10149;DHT22;5115;50.920;6.376;2022-09-09T02:02:18;16.90;99.90
10149;DHT22;5115;50.920;6.376;2022-09-09T02:04:50;16.90;99.90
10149;DHT22;5115;50.920;6.376;2022-09-09T02:10:20;16.90;99.90
10149;DHT22;5115;50.920;6.376;2022-09-09T02:13:01;17.00;99.90
10149;DHT22;5115;50.920;6.376;2022-09-09T02:15:39;17.00;99.90
10149;DHT22;5115;50.920;6.376;2022-09-09T02:18:08;17.00;99.90
10149;DHT22;5115;50.920;6.376;2022-09-09T02:20:37;17.00;99.90
10149;DHT22;5115;50.920;6.376;2022-09-09T02:23:04;17.10;99.90
10149;DHT22;5115;50.920;6.376;2022-09-09T02:25:30;17.20;99.90
10149;DHT22;5115;50.920;6.376;2022-09-09T02:27:56;17.20;99.90
10149;DHT22;5115;50.920;6.376;2022-09-09T02:30:24;17.20;99.90
10149;DHT22;5115;50.920;6.376;2022-09-09T02:32:52;17.20;99.90
10149;DHT22;5115;50.920;6.376;2022-09-09T02:35:23;17.20;99.90
10149;DHT22;5115;50.920;6.376;2022-09-09T02:37:50;17.30;99.90
10149;DHT22;5115;50.920;6.376;2022-09-09T02:40:17;17.20;99.90
10149;DHT22;5115;50.920;6.376;2022-09-09T02:42:44;17.30;99.90
10149;DHT22;5115;50.920;6.376;2022-09-09T02:45:13;17.30;99.90
10149;DHT22;5115;50.920;6.376;2022-09-09T02:47:47;17.30;99.90
10149;DHT22;5115;50.920;6.376;2022-09-09T02:52:55;17.30;99.90
10149;DHT22;5115;50.920;6.376;2022-09-09T02:58:14;17.40;99.90
10149;DHT22;5115;50.920;6.376;2022-09-09T03:00:45;17.50;99.90
10149;DHT22;5115;50.920;6.376;2022-09-09T03:03:10;17.50;99.90
10149;DHT22;5115;50.920;6.376;2022-09-09T03:05:37;17.50;99.90
10149;DHT22;5115;50.920;6.376;2022-09-09T03:08:03;17.50;99.90
10149;DHT22;5115;50.920;6.376;2022-09-09T03:10:31;17.60;99.90
10149;DHT22;5115;50.920;6.376;2022-09-09T03:12:56;17.60;99.90
10149;DHT22;5115;50.920;6.376;2022-09-09T03:15:22;17.60;99.90
10149;DHT22;5115;50.920;6.376;2022-09-09T03:17:47;17.60;99.90
10149;DHT22;5115;50.920;6.376;2022-09-09T03:20:13;17.60;99.90
10149;DHT22;5115;50.920;6.376;2022-09-09T03:22:39;17.60;99.90
10149;DHT22;5115;50.920;6.376;2022-09-09T03:25:05;17.70;99.90
10149;DHT22;5115;50.920;6.376;2022-09-09T03:27:31;17.70;99.90
10149;DHT22;5115;50.920;6.376;2022-09-09T03:29:57;17.80;99.90
10149;DHT22;5115;50.920;6.376;2022-09-09T03:32:23;17.80;99.90
10149;DHT22;5115;50.920;6.376;2022-09-09T03:34:51;17.80;99.90
10149;DHT22;5115;50.920;6.376;2022-09-09T03:37:18;17.80;99.90
10149;DHT22;5115;50.920;6.376;2022-09-09T03:39:44;17.70;99.90
10149;DHT22;5115;50.920;6.376;2022-09-09T03:42:11;17.70;99.90
10149;DHT22;5115;50.920;6.376;2022-09-09T03:44:37;17.70;99.90
10149;DHT22;5115;50.920;6.376;2022-09-09T03:47:03;17.70;99.90
10149;DHT22;5115;50.920;6.376;2022-09-09T03:49:28;17.70;99.90
10149;DHT22;5115;50.920;6.376;2022-09-09T03:51:55;17.70;99.90
10149;DHT22;5115;50.920;6.376;2022-09-09T03:54:23;17.70;99.90
10149;DHT22;5115;50.920;6.376;2022-09-09T03:56:49;17.60;99.90
10149;DHT22;5115;50.920;6.376;2022-09-09T03:59:14;17.60;99.90
10149;DHT22;5115;50.920;6.376;2022-09-09T04:01:40;17.70;99.90
10149;DHT22;5115;50.920;6.376;2022-09-09T04:04:05;17.60;99.90
10149;DHT22;5115;50.920;6.376;2022-09-09T04:06:31;17.60;99.90
10149;DHT22;5115;50.920;6.376;2022-09-09T04:08:56;18.70;99.90
10149;DHT22;5115;50.920;6.376;2022-09-09T04:11:22;17.60;99.90
10149;DHT22;5115;50.920;6.376;2022-09-09T04:13:48;17.70;99.90
10149;DHT22;5115;50.920;6.376;2022-09-09T04:16:14;17.60;99.90
10149;DHT22;5115;50.920;6.376;2022-09-09T04:18:40;17.70;99.90
10149;DHT22;5115;50.920;6.376;2022-09-09T04:21:06;17.70;99.90
10149;DHT22;5115;50.920;6.376;2022-09-09T04:23:33;17.70;99.90
10149;DHT22;5115;50.920;6.376;2022-09-09T04:26:01;18.50;99.90
10149;DHT22;5115;50.920;6.376;2022-09-09T04:28:29;17.70;99.90
10149;DHT22;5115;50.920;6.376;2022-09-09T04:30:55;17.80;99.90
10149;DHT22;5115;50.920;6.376;2022-09-09T04:33:24;17.80;99.90
10149;DHT22;5115;50.920;6.376;2022-09-09T04:35:52;17.70;99.90
10149;DHT22;5115;50.920;6.376;2022-09-09T04:38:19;17.80;99.90
10149;DHT22;5115;50.920;6.376;2022-09-09T04:40:48;17.80;99.90
10149;DHT22;5115;50.920;6.376;2022-09-09T04:43:14;17.80;99.90
10149;DHT22;5115;50.920;6.376;2022-09-09T04:45:41;17.80;99.90
10149;DHT22;5115;50.920;6.376;2022-09-09T04:48:08;17.90;99.90
10149;DHT22;5115;50.920;6.376;2022-09-09T04:50:35;17.90;99.90
10149;DHT22;5115;50.920;6.376;2022-09-09T04:53:05;17.90;99.90
10149;DHT22;5115;50.920;6.376;2022-09-09T04:55:31;17.90;99.90
10149;DHT22;5115;50.920;6.376;2022-09-09T04:57:56;17.90;99.90
10149;DHT22;5115;50.920;6.376;2022-09-09T05:00:23;17.80;99.90
10149;DHT22;5115;50.920;6.376;2022-09-09T05:02:49;17.80;99.90
10149;DHT22;5115;50.920;6.376;2022-09-09T05:05:14;17.80;99.90
10149;DHT22;5115;50.920;6.376;2022-09-09T05:07:40;17.90;99.90
10149;DHT22;5115;50.920;6.376;2022-09-09T05:10:07;17.80;99.90
10149;DHT22;5115;50.920;6.376;2022-09-09T05:12:32;17.80;99.90
10149;DHT22;5115;50.920;6.376;2022-09-09T05:14:58;17.70;99.90
10149;DHT22;5115;50.920;6.376;2022-09-09T05:17:24;17.70;99.90
10149;DHT22;5115;50.920;6.376;2022-09-09T05:19:49;17.80;99.90
10149;DHT22;5115;50.920;6.376;2022-09-09T05:22:19;17.70;99.90
10149;DHT22;5115;50.920;6.376;2022-09-09T05:24:45;17.70;99.90
10149;DHT22;5115;50.920;6.376;2022-09-09T05:27:11;17.70;99.90
10149;DHT22;5115;50.920;6.376;2022-09-09T05:29:38;17.70;99.90
10149;DHT22;5115;50.920;6.376;2022-09-09T05:32:04;17.90;99.90
10149;DHT22;5115;50.920;6.376;2022-09-09T05:34:29;17.80;99.90
10149;DHT22;5115;50.920;6.376;2022-09-09T05:36:55;17.80;99.90
10149;DHT22;5115;50.920;6.376;2022-09-09T05:39:20;17.80;99.90
10149;DHT22;5115;50.920;6.376;2022-09-09T05:41:46;17.80;99.90
10149;DHT22;5115;50.920;6.376;2022-09-09T05:44:12;17.80;99.90
10149;DHT22;5115;50.920;6.376;2022-09-09T05:46:38;17.70;99.90
10149;DHT22;5115;50.920;6.376;2022-09-09T05:49:04;17.70;99.90
10149;DHT22;5115;50.920;6.376;2022-09-09T05:51:31;17.80;99.90
10149;DHT22;5115;50.920;6.376;2022-09-09T05:53:57;17.80;99.90
10149;DHT22;5115;50.920;6.376;2022-09-09T05:56:25;17.80;99.90
10149;DHT22;5115;50.920;6.376;2022-09-09T05:58:52;17.80;99.90
10149;DHT22;5115;50.920;6.376;2022-09-09T06:01:27;17.80;99.90
10149;DHT22;5115;50.920;6.376;2022-09-09T06:03:53;17.80;99.90
10149;DHT22;5115;50.920;6.376;2022-09-09T06:06:21;17.80;99.90
10149;DHT22;5115;50.920;6.376;2022-09-09T06:08:50;17.80;99.90
10149;DHT22;5115;50.920;6.376;2022-09-09T06:11:21;17.90;99.90
10149;DHT22;5115;50.920;6.376;2022-09-09T06:13:47;18.00;99.90
10149;DHT22;5115;50.920;6.376;2022-09-09T06:16:17;18.10;99.90
10149;DHT22;5115;50.920;6.376;2022-09-09T06:18:43;18.30;99.90
10149;DHT22;5115;50.920;6.376;2022-09-09T06:21:18;18.60;99.90
10149;DHT22;5115;50.920;6.376;2022-09-09T06:23:44;18.70;99.90
10149;DHT22;5115;50.920;6.376;2022-09-09T06:26:13;18.70;99.90
10149;DHT22;5115;50.920;6.376;2022-09-09T06:28:39;18.80;99.90
10149;DHT22;5115;50.920;6.376;2022-09-09T06:31:07;18.80;99.90
10149;DHT22;5115;50.920;6.376;2022-09-09T06:33:35;18.80;99.90
10149;DHT22;5115;50.920;6.376;2022-09-09T06:36:03;18.90;99.90
10149;DHT22;5115;50.920;6.376;2022-09-09T06:38:29;18.80;99.90
10149;DHT22;5115;50.920;6.376;2022-09-09T06:40:56;18.70;99.90
10149;DHT22;5115;50.920;6.376;2022-09-09T06:43:23;18.80;99.90
10149;DHT22;5115;50.920;6.376;2022-09-09T06:45:59;19.20;99.90
10149;DHT22;5115;50.920;6.376;2022-09-09T06:48:26;19.50;99.90
10149;DHT22;5115;50.920;6.376;2022-09-09T06:51:07;19.90;99.90
10149;DHT22;5115;50.920;6.376;2022-09-09T06:53:34;20.40;99.90
10149;DHT22;5115;50.920;6.376;2022-09-09T06:56:01;20.80;99.90
10149;DHT22;5115;50.920;6.376;2022-09-09T06:58:27;20.80;99.90
10149;DHT22;5115;50.920;6.376;2022-09-09T07:01:05;20.80;99.90
10149;DHT22;5115;50.920;6.376;2022-09-09T07:03:31;20.70;99.90
10149;DHT22;5115;50.920;6.376;2022-09-09T07:05:57;20.60;99.90
10149;DHT22;5115;50.920;6.376;2022-09-09T07:08:23;20.80;99.90
10149;DHT22;5115;50.920;6.376;2022-09-09T07:10:50;20.80;99.90
10149;DHT22;5115;50.920;6.376;2022-09-09T07:13:20;21.10;99.90
10149;DHT22;5115;50.920;6.376;2022-09-09T07:15:50;21.50;99.90
10149;DHT22;5115;50.920;6.376;2022-09-09T07:18:16;21.60;99.90
10149;DHT22;5115;50.920;6.376;2022-09-09T07:20:41;21.70;99.90
10149;DHT22;5115;50.920;6.376;2022-09-09T07:23:07;21.70;99.90
10149;DHT22;5115;50.920;6.376;2022-09-09T07:25:32;21.30;99.90
10149;DHT22;5115;50.920;6.376;2022-09-09T07:27:58;21.10;99.90
10149;DHT22;5115;50.920;6.376;2022-09-09T07:30:23;20.90;99.90
10149;DHT22;5115;50.920;6.376;2022-09-09T07:32:51;20.60;99.90
10149;DHT22;5115;50.920;6.376;2022-09-09T07:35:17;20.50;99.90
10149;DHT22;5115;50.920;6.376;2022-09-09T07:37:45;20.20;99.90
10149;DHT22;5115;50.920;6.376;2022-09-09T07:40:11;21.30;99.90
10149;DHT22;5115;50.920;6.376;2022-09-09T07:42:36;20.20;99.90
10149;DHT22;5115;50.920;6.376;2022-09-09T07:45:03;20.20;99.90
10149;DHT22;5115;50.920;6.376;2022-09-09T07:47:29;20.20;99.90
10149;DHT22;5115;50.920;6.376;2022-09-09T07:49:55;20.90;99.90
10149;DHT22;5115;50.920;6.376;2022-09-09T07:52:21;21.30;99.90
10149;DHT22;5115;50.920;6.376;2022-09-09T07:54:46;21.80;99.90
10149;DHT22;5115;50.920;6.376;2022-09-09T07:57:12;22.20;99.90
10149;DHT22;5115;50.920;6.376;2022-09-09T07:59:38;22.00;99.90
10149;DHT22;5115;50.920;6.376;2022-09-09T08:02:03;21.70;99.90
10149;DHT22;5115;50.920;6.376;2022-09-09T08:04:29;21.70;99.90
10149;DHT22;5115;50.920;6.376;2022-09-09T08:06:57;21.50;99.90
10149;DHT22;5115;50.920;6.376;2022-09-09T08:09:24;21.30;99.90
10149;DHT22;5115;50.920;6.376;2022-09-09T08:11:52;21.20;99.90
10149;DHT22;5115;50.920;6.376;2022-09-09T08:14:18;21.10;99.90
10149;DHT22;5115;50.920;6.376;2022-09-09T08:16:46;21.00;99.90
10149;DHT22;5115;50.920;6.376;2022-09-09T08:19:12;21.00;99.90
10149;DHT22;5115;50.920;6.376;2022-09-09T08:21:41;20.80;99.90
10149;DHT22;5115;50.920;6.376;2022-09-09T08:24:08;20.70;99.90
10149;DHT22;5115;50.920;6.376;2022-09-09T08:26:37;20.80;99.90
10149;DHT22;5115;50.920;6.376;2022-09-09T08:29:05;20.90;99.90
10149;DHT22;5115;50.920;6.376;2022-09-09T08:31:34;21.10;99.90
10149;DHT22;5115;50.920;6.376;2022-09-09T08:34:01;21.50;99.90
10149;DHT22;5115;50.920;6.376;2022-09-09T08:36:30;21.50;99.90
10149;DHT22;5115;50.920;6.376;2022-09-09T08:38:57;21.60;99.90
10149;DHT22;5115;50.920;6.376;2022-09-09T08:41:40;21.70;99.90
10149;DHT22;5115;50.920;6.376;2022-09-09T08:47:37;21.30;99.90
10149;DHT22;5115;50.920;6.376;2022-09-09T08:50:32;21.10;99.90
10149;DHT22;5115;50.920;6.376;2022-09-09T08:53:15;20.90;99.90
10149;DHT22;5115;50.920;6.376;2022-09-09T08:55:51;21.00;99.90
10149;DHT22;5115;50.920;6.376;2022-09-09T08:58:23;21.20;99.90
10149;DHT22;5115;50.920;6.376;2022-09-09T09:03:54;21.00;99.90
10149;DHT22;5115;50.920;6.376;2022-09-09T09:11:21;22.30;99.90
10149;DHT22;5115;50.920;6.376;2022-09-09T09:13:58;23.50;99.90
10149;DHT22;5115;50.920;6.376;2022-09-09T09:19:16;24.60;99.90
10149;DHT22;5115;50.920;6.376;2022-09-09T09:22:00;24.70;99.90
10149;DHT22;5115;50.920;6.376;2022-09-09T09:24:52;24.70;99.90
10149;DHT22;5115;50.920;6.376;2022-09-09T09:27:32;24.50;99.90
10149;DHT22;5115;50.920;6.376;2022-09-09T09:30:00;24.50;99.90
10149;DHT22;5115;50.920;6.376;2022-09-09T09:32:29;24.70;99.90
10149;DHT22;5115;50.920;6.376;2022-09-09T09:34:57;25.00;99.90
10149;DHT22;5115;50.920;6.376;2022-09-09T09:37:31;24.80;99.90
10149;DHT22;5115;50.920;6.376;2022-09-09T09:42:36;25.30;99.90
10149;DHT22;5115;50.920;6.376;2022-09-09T09:45:29;25.20;99.90
10149;DHT22;5115;50.920;6.376;2022-09-09T09:48:13;25.00;99.90
10149;DHT22;5115;50.920;6.376;2022-09-09T09:50:59;25.10;99.90
10149;DHT22;5115;50.920;6.376;2022-09-09T09:53:31;25.50;99.90
10149;DHT22;5115;50.920;6.376;2022-09-09T09:56:05;25.70;99.90
10149;DHT22;5115;50.920;6.376;2022-09-09T09:58:37;25.70;99.90
10149;DHT22;5115;50.920;6.376;2022-09-09T10:01:04;25.60;99.90
10149;DHT22;5115;50.920;6.376;2022-09-09T10:03:32;24.90;99.90
10149;DHT22;5115;50.920;6.376;2022-09-09T10:05:58;24.70;99.90
10149;DHT22;5115;50.920;6.376;2022-09-09T10:08:25;24.80;99.90
10149;DHT22;5115;50.920;6.376;2022-09-09T10:13:49;24.00;99.90
10149;DHT22;5115;50.920;6.376;2022-09-09T10:16:46;23.70;99.90
10149;DHT22;5115;50.920;6.376;2022-09-09T10:24:47;22.80;99.90
10149;DHT22;5115;50.920;6.376;2022-09-09T10:32:32;22.40;99.90
10149;DHT22;5115;50.920;6.376;2022-09-09T10:35:09;22.20;99.90
10149;DHT22;5115;50.920;6.376;2022-09-09T10:38:11;22.00;99.90
10149;DHT22;5115;50.920;6.376;2022-09-09T10:41:31;21.90;99.90
10149;DHT22;5115;50.920;6.376;2022-09-09T10:43:33;22.10;99.90
10149;DHT22;5115;50.920;6.376;2022-09-09T10:46:27;22.10;99.90
10149;DHT22;5115;50.920;6.376;2022-09-09T10:59:56;22.50;99.90
10149;DHT22;5115;50.920;6.376;2022-09-09T11:02:31;22.60;99.90
10149;DHT22;5115;50.920;6.376;2022-09-09T11:05:14;22.60;99.90
10149;DHT22;5115;50.920;6.376;2022-09-09T11:07:47;22.60;99.90
10149;DHT22;5115;50.920;6.376;2022-09-09T11:10:44;22.50;99.90
10149;DHT22;5115;50.920;6.376;2022-09-09T11:16:22;21.80;99.90
10149;DHT22;5115;50.920;6.376;2022-09-09T11:18:49;21.70;99.90
10149;DHT22;5115;50.920;6.376;2022-09-09T11:21:26;21.60;99.90
10149;DHT22;5115;50.920;6.376;2022-09-09T11:23:57;21.70;99.90
10149;DHT22;5115;50.920;6.376;2022-09-09T11:26:38;21.70;99.90
10149;DHT22;5115;50.920;6.376;2022-09-09T11:29:13;21.90;99.90
10149;DHT22;5115;50.920;6.376;2022-09-09T11:32:13;22.00;99.90
10149;DHT22;5115;50.920;6.376;2022-09-09T11:35:14;22.10;99.90
10149;DHT22;5115;50.920;6.376;2022-09-09T11:41:00;22.70;99.90
10149;DHT22;5115;50.920;6.376;2022-09-09T11:43:32;23.10;99.90
10149;DHT22;5115;50.920;6.376;2022-09-09T11:46:00;23.40;99.90
10149;DHT22;5115;50.920;6.376;2022-09-09T11:48:36;23.40;99.90
10149;DHT22;5115;50.920;6.376;2022-09-09T11:51:07;23.30;99.90
10149;DHT22;5115;50.920;6.376;2022-09-09T11:53:55;23.10;99.90
10149;DHT22;5115;50.920;6.376;2022-09-09T11:56:31;23.20;99.90
10149;DHT22;5115;50.920;6.376;2022-09-09T11:59:06;23.10;99.90
10149;DHT22;5115;50.920;6.376;2022-09-09T12:01:41;22.90;99.90
10149;DHT22;5115;50.920;6.376;2022-09-09T12:04:21;22.60;99.90
10149;DHT22;5115;50.920;6.376;2022-09-09T12:06:57;22.20;99.90
10149;DHT22;5115;50.920;6.376;2022-09-09T12:12:23;22.00;99.90
10149;DHT22;5115;50.920;6.376;2022-09-09T12:17:25;22.10;99.90
10149;DHT22;5115;50.920;6.376;2022-09-09T12:20:06;22.10;99.90
10149;DHT22;5115;50.920;6.376;2022-09-09T12:25:48;22.30;99.90
10149;DHT22;5115;50.920;6.376;2022-09-09T12:29:05;22.30;99.90
10149;DHT22;5115;50.920;6.376;2022-09-09T12:33:36;22.40;99.90
10149;DHT22;5115;50.920;6.376;2022-09-09T12:36:03;22.50;99.90
10149;DHT22;5115;50.920;6.376;2022-09-09T12:38:36;22.50;99.90
10149;DHT22;5115;50.920;6.376;2022-09-09T12:41:02;22.60;99.90
10149;DHT22;5115;50.920;6.376;2022-09-09T12:43:28;22.40;99.90
10149;DHT22;5115;50.920;6.376;2022-09-09T12:46:08;22.30;99.90
10149;DHT22;5115;50.920;6.376;2022-09-09T12:48:40;22.50;99.90
10149;DHT22;5115;50.920;6.376;2022-09-09T12:51:18;22.50;99.90
10149;DHT22;5115;50.920;6.376;2022-09-09T12:53:45;22.30;99.90
10149;DHT22;5115;50.920;6.376;2022-09-09T12:56:19;22.10;99.90
10149;DHT22;5115;50.920;6.376;2022-09-09T12:58:47;22.20;99.90
10149;DHT22;5115;50.920;6.376;2022-09-09T13:01:24;22.20;99.90
10149;DHT22;5115;50.920;6.376;2022-09-09T13:03:51;22.10;99.90
10149;DHT22;5115;50.920;6.376;2022-09-09T13:06:29;22.30;99.90
10149;DHT22;5115;50.920;6.376;2022-09-09T13:08:57;22.30;99.90
10149;DHT22;5115;50.920;6.376;2022-09-09T13:11:41;22.30;99.90
10149;DHT22;5115;50.920;6.376;2022-09-09T13:14:29;22.30;99.90
10149;DHT22;5115;50.920;6.376;2022-09-09T13:17:00;22.30;99.90
10149;DHT22;5115;50.920;6.376;2022-09-09T13:19:26;22.40;99.90
10149;DHT22;5115;50.920;6.376;2022-09-09T13:21:54;22.40;99.90
10149;DHT22;5115;50.920;6.376;2022-09-09T13:24:32;22.40;99.90
10149;DHT22;5115;50.920;6.376;2022-09-09T13:29:53;22.50;99.90
10149;DHT22;5115;50.920;6.376;2022-09-09T13:32:24;22.70;99.90
10149;DHT22;5115;50.920;6.376;2022-09-09T13:34:58;22.70;99.90
10149;DHT22;5115;50.920;6.376;2022-09-09T13:37:36;22.80;99.90
10149;DHT22;5115;50.920;6.376;2022-09-09T13:40:04;22.80;99.90
10149;DHT22;5115;50.920;6.376;2022-09-09T13:42:36;22.90;99.90
10149;DHT22;5115;50.920;6.376;2022-09-09T13:45:04;22.80;99.90
10149;DHT22;5115;50.920;6.376;2022-09-09T13:47:34;22.80;99.90
10149;DHT22;5115;50.920;6.376;2022-09-09T13:52:44;22.60;99.90
10149;DHT22;5115;50.920;6.376;2022-09-09T13:55:09;22.60;99.90
10149;DHT22;5115;50.920;6.376;2022-09-09T13:57:35;22.70;99.90
10149;DHT22;5115;50.920;6.376;2022-09-09T14:00:01;22.60;99.90
10149;DHT22;5115;50.920;6.376;2022-09-09T14:02:26;22.40;99.90
10149;DHT22;5115;50.920;6.376;2022-09-09T14:04:52;22.20;99.90
10149;DHT22;5115;50.920;6.376;2022-09-09T14:07:23;21.90;99.90
10149;DHT22;5115;50.920;6.376;2022-09-09T14:09:48;21.60;99.90
10149;DHT22;5115;50.920;6.376;2022-09-09T14:12:17;21.50;99.90
10149;DHT22;5115;50.920;6.376;2022-09-09T14:14:43;21.40;99.90
10149;DHT22;5115;50.920;6.376;2022-09-09T14:17:09;21.60;99.90
10149;DHT22;5115;50.920;6.376;2022-09-09T14:19:35;21.60;99.90
10149;DHT22;5115;50.920;6.376;2022-09-09T14:22:00;21.60;99.90
10149;DHT22;5115;50.920;6.376;2022-09-09T14:24:26;21.60;99.90
10149;DHT22;5115;50.920;6.376;2022-09-09T14:26:53;21.80;99.90
10149;DHT22;5115;50.920;6.376;2022-09-09T14:29:19;21.90;99.90
10149;DHT22;5115;50.920;6.376;2022-09-09T14:31:44;22.00;99.90
10149;DHT22;5115;50.920;6.376;2022-09-09T14:34:10;22.20;99.90
10149;DHT22;5115;50.920;6.376;2022-09-09T14:36:36;22.20;99.90
10149;DHT22;5115;50.920;6.376;2022-09-09T14:39:02;22.20;99.90
10149;DHT22;5115;50.920;6.376;2022-09-09T14:41:29;22.30;99.90
10149;DHT22;5115;50.920;6.376;2022-09-09T14:43:55;22.40;99.90
10149;DHT22;5115;50.920;6.376;2022-09-09T14:46:21;22.30;99.90
10149;DHT22;5115;50.920;6.376;2022-09-09T14:48:47;22.20;99.90
10149;DHT22;5115;50.920;6.376;2022-09-09T14:51:19;22.10;99.90
10149;DHT22;5115;50.920;6.376;2022-09-09T14:53:45;21.90;99.90
10149;DHT22;5115;50.920;6.376;2022-09-09T14:56:15;21.60;99.90
10149;DHT22;5115;50.920;6.376;2022-09-09T14:58:41;21.50;99.90
10149;DHT22;5115;50.920;6.376;2022-09-09T15:01:09;21.30;99.90
10149;DHT22;5115;50.920;6.376;2022-09-09T15:03:39;21.20;99.90
10149;DHT22;5115;50.920;6.376;2022-09-09T15:06:09;21.10;99.90
10149;DHT22;5115;50.920;6.376;2022-09-09T15:08:36;21.00;99.90
10149;DHT22;5115;50.920;6.376;2022-09-09T15:11:04;21.10;99.90
10149;DHT22;5115;50.920;6.376;2022-09-09T15:13:30;21.00;99.90
10149;DHT22;5115;50.920;6.376;2022-09-09T15:15:56;20.90;99.90
10149;DHT22;5115;50.920;6.376;2022-09-09T15:18:23;20.80;99.90
10149;DHT22;5115;50.920;6.376;2022-09-09T15:20:49;20.80;99.90
10149;DHT22;5115;50.920;6.376;2022-09-09T15:23:14;20.80;99.90
10149;DHT22;5115;50.920;6.376;2022-09-09T15:25:55;20.90;99.90
10149;DHT22;5115;50.920;6.376;2022-09-09T15:28:22;20.90;99.90
10149;DHT22;5115;50.920;6.376;2022-09-09T15:30:49;20.80;99.90
10149;DHT22;5115;50.920;6.376;2022-09-09T15:33:15;20.80;99.90
10149;DHT22;5115;50.920;6.376;2022-09-09T15:35:43;20.60;99.90
10149;DHT22;5115;50.920;6.376;2022-09-09T15:38:09;20.60;99.90
10149;DHT22;5115;50.920;6.376;2022-09-09T15:40:35;20.50;99.90
10149;DHT22;5115;50.920;6.376;2022-09-09T15:43:00;20.50;99.90
10149;DHT22;5115;50.920;6.376;2022-09-09T15:45:27;20.30;99.90
10149;DHT22;5115;50.920;6.376;2022-09-09T15:47:53;20.40;99.90
10149;DHT22;5115;50.920;6.376;2022-09-09T15:50:18;20.30;99.90
10149;DHT22;5115;50.920;6.376;2022-09-09T15:52:44;20.30;99.90
10149;DHT22;5115;50.920;6.376;2022-09-09T15:55:09;20.30;99.90
10149;DHT22;5115;50.920;6.376;2022-09-09T15:57:35;20.30;99.90
10149;DHT22;5115;50.920;6.376;2022-09-09T16:00:03;20.20;99.90
10149;DHT22;5115;50.920;6.376;2022-09-09T16:02:29;20.20;99.90
10149;DHT22;5115;50.920;6.376;2022-09-09T16:04:56;20.30;99.90
10149;DHT22;5115;50.920;6.376;2022-09-09T16:07:22;20.30;99.90
10149;DHT22;5115;50.920;6.376;2022-09-09T16:09:48;20.40;99.90
10149;DHT22;5115;50.920;6.376;2022-09-09T16:12:16;20.50;99.90
10149;DHT22;5115;50.920;6.376;2022-09-09T16:14:42;20.60;99.90
10149;DHT22;5115;50.920;6.376;2022-09-09T16:17:08;20.70;99.90
10149;DHT22;5115;50.920;6.376;2022-09-09T16:19:34;20.70;99.90
10149;DHT22;5115;50.920;6.376;2022-09-09T16:22:00;20.70;99.90
10149;DHT22;5115;50.920;6.376;2022-09-09T16:24:26;20.50;99.90
10149;DHT22;5115;50.920;6.376;2022-09-09T16:26:53;20.50;99.90
10149;DHT22;5115;50.920;6.376;2022-09-09T16:29:19;20.60;99.90
10149;DHT22;5115;50.920;6.376;2022-09-09T16:31:47;20.60;99.90
10149;DHT22;5115;50.920;6.376;2022-09-09T16:34:13;20.70;99.90
10149;DHT22;5115;50.920;6.376;2022-09-09T16:36:41;20.70;99.90
10149;DHT22;5115;50.920;6.376;2022-09-09T16:39:10;20.70;99.90
10149;DHT22;5115;50.920;6.376;2022-09-09T16:41:36;20.70;99.90
10149;DHT22;5115;50.920;6.376;2022-09-09T16:44:04;20.60;99.90
10149;DHT22;5115;50.920;6.376;2022-09-09T16:46:32;20.40;99.90
10149;DHT22;5115;50.920;6.376;2022-09-09T16:49:00;20.40;99.90
10149;DHT22;5115;50.920;6.376;2022-09-09T16:51:31;20.40;99.90
10149;DHT22;5115;50.920;6.376;2022-09-09T16:53:59;20.40;99.90
10149;DHT22;5115;50.920;6.376;2022-09-09T16:56:27;20.30;99.90
10149;DHT22;5115;50.920;6.376;2022-09-09T16:58:57;20.40;99.90
10149;DHT22;5115;50.920;6.376;2022-09-09T17:01:25;20.20;99.90
10149;DHT22;5115;50.920;6.376;2022-09-09T17:03:59;20.10;99.90
10149;DHT22;5115;50.920;6.376;2022-09-09T17:06:26;20.00;99.90
10149;DHT22;5115;50.920;6.376;2022-09-09T17:09:00;20.00;99.90
10149;DHT22;5115;50.920;6.376;2022-09-09T17:11:26;20.00;99.90
10149;DHT22;5115;50.920;6.376;2022-09-09T17:13:53;19.90;99.90
10149;DHT22;5115;50.920;6.376;2022-09-09T17:16:21;19.90;99.90
10149;DHT22;5115;50.920;6.376;2022-09-09T17:18:48;20.00;99.90
10149;DHT22;5115;50.920;6.376;2022-09-09T17:21:15;19.90;99.90
10149;DHT22;5115;50.920;6.376;2022-09-09T17:23:42;19.90;99.90
10149;DHT22;5115;50.920;6.376;2022-09-09T17:26:10;19.90;99.90
10149;DHT22;5115;50.920;6.376;2022-09-09T17:28:38;19.90;99.90
10149;DHT22;5115;50.920;6.376;2022-09-09T17:31:12;19.80;99.90
10149;DHT22;5115;50.920;6.376;2022-09-09T17:33:39;19.80;99.90
10149;DHT22;5115;50.920;6.376;2022-09-09T17:36:17;19.80;99.90
10149;DHT22;5115;50.920;6.376;2022-09-09T17:38:43;19.70;99.90
10149;DHT22;5115;50.920;6.376;2022-09-09T17:41:13;19.60;99.90
10149;DHT22;5115;50.920;6.376;2022-09-09T17:43:40;19.60;99.90